sensor_id;sensor_type;location;lat;lon;timestamp;P1;durP1;ratioP1;P2;durP2;ratioP2
32196;SDS011;18697;42.770;23.400;2023-05-21T00:01:31;8.15;;;3.63;;
32196;SDS011;18697;42.770;23.400;2023-05-21T00:03:56;4.38;;;3.60;;
32196;SDS011;18697;42.770;23.400;2023-05-21T00:06:23;6.85;;;3.53;;
32196;SDS011;18697;42.770;23.400;2023-05-21T00:08:49;7.70;;;3.65;;
32196;SDS011;18697;42.770;23.400;2023-05-21T00:11:14;4.18;;;3.50;;
32196;SDS011;18697;42.770;23.400;2023-05-21T00:13:40;4.75;;;3.90;;
32196;SDS011;18697;42.770;23.400;2023-05-21T00:16:05;6.43;;;4.28;;
32196;SDS011;18697;42.770;23.400;2023-05-21T00:18:31;4.70;;;4.03;;
32196;SDS011;18697;42.770;23.400;2023-05-21T00:20:58;7.47;;;3.92;;
32196;SDS011;18697;42.770;23.400;2023-05-21T00:23:24;3.90;;;3.47;;
32196;SDS011;18697;42.770;23.400;2023-05-21T00:25:50;8.25;;;3.45;;
32196;SDS011;18697;42.770;23.400;2023-05-21T00:28:16;6.43;;;3.88;;
32196;SDS011;18697;42.770;23.400;2023-05-21T00:30:42;4.13;;;3.22;;
32196;SDS011;18697;42.770;23.400;2023-05-21T00:33:07;4.47;;;3.55;;
32196;SDS011;18697;42.770;23.400;2023-05-21T00:35:37;6.50;;;3.55;;
32196;SDS011;18697;42.770;23.400;2023-05-21T00:38:03;5.57;;;3.10;;
32196;SDS011;18697;42.770;23.400;2023-05-21T00:40:29;3.85;;;3.50;;
32196;SDS011;18697;42.770;23.400;2023-05-21T00:42:55;4.80;;;3.40;;
32196;SDS011;18697;42.770;23.400;2023-05-21T00:45:21;4.25;;;3.28;;
32196;SDS011;18697;42.770;23.400;2023-05-21T00:47:48;3.90;;;2.80;;
32196;SDS011;18697;42.770;23.400;2023-05-21T00:50:13;7.18;;;4.10;;
32196;SDS011;18697;42.770;23.400;2023-05-21T00:52:40;7.38;;;4.30;;
32196;SDS011;18697;42.770;23.400;2023-05-21T00:55:08;6.40;;;4.07;;
32196;SDS011;18697;42.770;23.400;2023-05-21T00:57:34;4.82;;;3.80;;
32196;SDS011;18697;42.770;23.400;2023-05-21T01:00:01;8.40;;;5.25;;
32196;SDS011;18697;42.770;23.400;2023-05-21T01:02:28;4.25;;;3.85;;
32196;SDS011;18697;42.770;23.400;2023-05-21T01:04:58;7.88;;;5.10;;
32196;SDS011;18697;42.770;23.400;2023-05-21T01:07:24;12.05;;;6.30;;
32196;SDS011;18697;42.770;23.400;2023-05-21T01:09:50;9.13;;;5.63;;
32196;SDS011;18697;42.770;23.400;2023-05-21T01:12:16;6.53;;;5.40;;
32196;SDS011;18697;42.770;23.400;2023-05-21T01:14:42;5.45;;;4.72;;
32196;SDS011;18697;42.770;23.400;2023-05-21T01:17:08;8.30;;;4.43;;
32196;SDS011;18697;42.770;23.400;2023-05-21T01:19:34;6.63;;;4.05;;
32196;SDS011;18697;42.770;23.400;2023-05-21T01:22:04;5.50;;;3.85;;
32196;SDS011;18697;42.770;23.400;2023-05-21T01:24:31;10.23;;;5.20;;
32196;SDS011;18697;42.770;23.400;2023-05-21T01:26:58;4.85;;;4.00;;
32196;SDS011;18697;42.770;23.400;2023-05-21T01:29:24;4.35;;;3.88;;
32196;SDS011;18697;42.770;23.400;2023-05-21T01:32:03;10.13;;;4.55;;
32196;SDS011;18697;42.770;23.400;2023-05-21T01:34:40;4.82;;;3.65;;
32196;SDS011;18697;42.770;23.400;2023-05-21T01:39:37;5.95;;;3.22;;
32196;SDS011;18697;42.770;23.400;2023-05-21T01:42:08;4.78;;;3.35;;
32196;SDS011;18697;42.770;23.400;2023-05-21T01:44:35;6.35;;;4.15;;
32196;SDS011;18697;42.770;23.400;2023-05-21T01:47:02;5.32;;;3.60;;
32196;SDS011;18697;42.770;23.400;2023-05-21T01:49:29;3.63;;;3.33;;
32196;SDS011;18697;42.770;23.400;2023-05-21T01:51:54;6.00;;;3.75;;
32196;SDS011;18697;42.770;23.400;2023-05-21T01:54:20;5.50;;;3.35;;
32196;SDS011;18697;42.770;23.400;2023-05-21T01:56:46;5.10;;;3.42;;
32196;SDS011;18697;42.770;23.400;2023-05-21T01:59:13;4.00;;;3.55;;
32196;SDS011;18697;42.770;23.400;2023-05-21T02:01:39;9.10;;;5.65;;
32196;SDS011;18697;42.770;23.400;2023-05-21T02:04:04;8.75;;;4.68;;
32196;SDS011;18697;42.770;23.400;2023-05-21T02:06:30;6.22;;;5.30;;
32196;SDS011;18697;42.770;23.400;2023-05-21T02:08:55;4.68;;;4.18;;
32196;SDS011;18697;42.770;23.400;2023-05-21T02:11:21;7.15;;;5.13;;
32196;SDS011;18697;42.770;23.400;2023-05-21T02:13:47;15.18;;;6.22;;
32196;SDS011;18697;42.770;23.400;2023-05-21T02:16:12;4.78;;;4.22;;
32196;SDS011;18697;42.770;23.400;2023-05-21T02:18:40;6.53;;;4.45;;
32196;SDS011;18697;42.770;23.400;2023-05-21T02:21:07;7.03;;;5.65;;
32196;SDS011;18697;42.770;23.400;2023-05-21T02:23:35;9.38;;;6.70;;
32196;SDS011;18697;42.770;23.400;2023-05-21T02:26:00;10.45;;;6.78;;
32196;SDS011;18697;42.770;23.400;2023-05-21T02:28:26;10.18;;;7.15;;
32196;SDS011;18697;42.770;23.400;2023-05-21T02:30:53;9.00;;;7.55;;
32196;SDS011;18697;42.770;23.400;2023-05-21T02:33:19;15.00;;;8.57;;
32196;SDS011;18697;42.770;23.400;2023-05-21T02:35:46;12.93;;;8.45;;
32196;SDS011;18697;42.770;23.400;2023-05-21T02:38:11;16.10;;;9.68;;
32196;SDS011;18697;42.770;23.400;2023-05-21T02:40:37;12.43;;;9.90;;
32196;SDS011;18697;42.770;23.400;2023-05-21T02:43:03;10.70;;;8.05;;
32196;SDS011;18697;42.770;23.400;2023-05-21T02:45:29;12.43;;;6.18;;
32196;SDS011;18697;42.770;23.400;2023-05-21T02:47:54;8.15;;;5.85;;
32196;SDS011;18697;42.770;23.400;2023-05-21T02:50:20;9.82;;;7.22;;
32196;SDS011;18697;42.770;23.400;2023-05-21T02:52:46;10.85;;;7.60;;
32196;SDS011;18697;42.770;23.400;2023-05-21T02:55:12;14.15;;;7.43;;
32196;SDS011;18697;42.770;23.400;2023-05-21T02:57:37;6.50;;;5.10;;
32196;SDS011;18697;42.770;23.400;2023-05-21T03:00:03;6.38;;;5.32;;
32196;SDS011;18697;42.770;23.400;2023-05-21T03:02:30;8.77;;;6.60;;
32196;SDS011;18697;42.770;23.400;2023-05-21T03:04:55;8.85;;;5.85;;
32196;SDS011;18697;42.770;23.400;2023-05-21T03:07:21;6.88;;;4.88;;
32196;SDS011;18697;42.770;23.400;2023-05-21T03:09:48;9.32;;;4.65;;
32196;SDS011;18697;42.770;23.400;2023-05-21T03:12:13;6.97;;;5.13;;
32196;SDS011;18697;42.770;23.400;2023-05-21T03:14:39;7.82;;;4.47;;
32196;SDS011;18697;42.770;23.400;2023-05-21T03:17:06;6.15;;;4.72;;
32196;SDS011;18697;42.770;23.400;2023-05-21T03:19:32;6.13;;;4.38;;
32196;SDS011;18697;42.770;23.400;2023-05-21T03:21:59;7.78;;;6.63;;
32196;SDS011;18697;42.770;23.400;2023-05-21T03:24:26;7.72;;;5.70;;
32196;SDS011;18697;42.770;23.400;2023-05-21T03:26:54;9.00;;;5.88;;
32196;SDS011;18697;42.770;23.400;2023-05-21T03:29:19;10.63;;;5.00;;
32196;SDS011;18697;42.770;23.400;2023-05-21T03:31:45;5.13;;;4.63;;
32196;SDS011;18697;42.770;23.400;2023-05-21T03:34:10;6.75;;;5.20;;
32196;SDS011;18697;42.770;23.400;2023-05-21T03:36:35;9.52;;;5.03;;
32196;SDS011;18697;42.770;23.400;2023-05-21T03:39:01;9.45;;;4.93;;
32196;SDS011;18697;42.770;23.400;2023-05-21T03:41:27;7.97;;;4.97;;
32196;SDS011;18697;42.770;23.400;2023-05-21T03:43:52;8.57;;;5.50;;
32196;SDS011;18697;42.770;23.400;2023-05-21T03:46:18;12.27;;;7.13;;
32196;SDS011;18697;42.770;23.400;2023-05-21T03:48:43;11.43;;;7.82;;
32196;SDS011;18697;42.770;23.400;2023-05-21T03:51:08;16.88;;;7.97;;
32196;SDS011;18697;42.770;23.400;2023-05-21T03:53:34;13.80;;;8.20;;
32196;SDS011;18697;42.770;23.400;2023-05-21T03:55:59;9.32;;;6.47;;
32196;SDS011;18697;42.770;23.400;2023-05-21T04:00:50;13.95;;;7.72;;
32196;SDS011;18697;42.770;23.400;2023-05-21T04:05:42;10.23;;;6.32;;
32196;SDS011;18697;42.770;23.400;2023-05-21T04:08:07;11.80;;;6.55;;
32196;SDS011;18697;42.770;23.400;2023-05-21T04:12:58;11.90;;;6.85;;
32196;SDS011;18697;42.770;23.400;2023-05-21T04:15:24;17.38;;;6.47;;
32196;SDS011;18697;42.770;23.400;2023-05-21T04:17:49;6.18;;;4.70;;
32196;SDS011;18697;42.770;23.400;2023-05-21T04:20:16;8.60;;;5.93;;
32196;SDS011;18697;42.770;23.400;2023-05-21T04:22:42;11.50;;;5.75;;
32196;SDS011;18697;42.770;23.400;2023-05-21T04:25:07;10.27;;;4.35;;
32196;SDS011;18697;42.770;23.400;2023-05-21T04:27:33;8.05;;;4.35;;
32196;SDS011;18697;42.770;23.400;2023-05-21T04:29:59;5.15;;;4.35;;
32196;SDS011;18697;42.770;23.400;2023-05-21T04:32:24;7.45;;;5.85;;
32196;SDS011;18697;42.770;23.400;2023-05-21T04:34:50;12.15;;;5.88;;
32196;SDS011;18697;42.770;23.400;2023-05-21T04:37:15;6.63;;;5.20;;
32196;SDS011;18697;42.770;23.400;2023-05-21T04:39:43;9.73;;;6.22;;
32196;SDS011;18697;42.770;23.400;2023-05-21T04:42:09;5.70;;;4.68;;
32196;SDS011;18697;42.770;23.400;2023-05-21T04:44:35;5.70;;;5.10;;
32196;SDS011;18697;42.770;23.400;2023-05-21T04:47:02;9.20;;;4.45;;
32196;SDS011;18697;42.770;23.400;2023-05-21T04:49:27;9.50;;;6.10;;
32196;SDS011;18697;42.770;23.400;2023-05-21T04:51:53;7.03;;;5.30;;
32196;SDS011;18697;42.770;23.400;2023-05-21T04:54:19;8.63;;;4.50;;
32196;SDS011;18697;42.770;23.400;2023-05-21T04:56:44;6.85;;;5.03;;
32196;SDS011;18697;42.770;23.400;2023-05-21T04:59:11;8.48;;;4.80;;
32196;SDS011;18697;42.770;23.400;2023-05-21T05:01:36;10.85;;;6.15;;
32196;SDS011;18697;42.770;23.400;2023-05-21T05:04:02;6.88;;;5.03;;
32196;SDS011;18697;42.770;23.400;2023-05-21T05:06:28;5.18;;;4.32;;
32196;SDS011;18697;42.770;23.400;2023-05-21T05:08:53;7.38;;;4.93;;
32196;SDS011;18697;42.770;23.400;2023-05-21T05:11:19;7.65;;;5.65;;
32196;SDS011;18697;42.770;23.400;2023-05-21T05:13:44;7.90;;;5.47;;
32196;SDS011;18697;42.770;23.400;2023-05-21T05:16:10;7.38;;;4.57;;
32196;SDS011;18697;42.770;23.400;2023-05-21T05:18:36;5.65;;;4.60;;
32196;SDS011;18697;42.770;23.400;2023-05-21T05:21:02;8.32;;;6.20;;
32196;SDS011;18697;42.770;23.400;2023-05-21T05:23:27;8.52;;;5.05;;
32196;SDS011;18697;42.770;23.400;2023-05-21T05:25:53;9.25;;;5.90;;
32196;SDS011;18697;42.770;23.400;2023-05-21T05:28:18;5.72;;;5.13;;
32196;SDS011;18697;42.770;23.400;2023-05-21T05:30:43;9.38;;;6.00;;
32196;SDS011;18697;42.770;23.400;2023-05-21T05:33:09;11.90;;;5.68;;
32196;SDS011;18697;42.770;23.400;2023-05-21T05:35:35;10.52;;;5.05;;
32196;SDS011;18697;42.770;23.400;2023-05-21T05:38:01;9.88;;;5.30;;
32196;SDS011;18697;42.770;23.400;2023-05-21T05:40:26;11.00;;;4.60;;
32196;SDS011;18697;42.770;23.400;2023-05-21T05:42:52;6.85;;;5.10;;
32196;SDS011;18697;42.770;23.400;2023-05-21T05:45:18;12.95;;;5.40;;
32196;SDS011;18697;42.770;23.400;2023-05-21T05:47:44;9.18;;;4.88;;
32196;SDS011;18697;42.770;23.400;2023-05-21T05:50:09;5.55;;;4.88;;
32196;SDS011;18697;42.770;23.400;2023-05-21T05:52:35;7.75;;;4.88;;
32196;SDS011;18697;42.770;23.400;2023-05-21T05:55:00;11.73;;;5.30;;
32196;SDS011;18697;42.770;23.400;2023-05-21T05:57:26;10.23;;;6.07;;
32196;SDS011;18697;42.770;23.400;2023-05-21T05:59:51;15.88;;;5.97;;
32196;SDS011;18697;42.770;23.400;2023-05-21T06:02:17;10.90;;;5.25;;
32196;SDS011;18697;42.770;23.400;2023-05-21T06:04:42;11.55;;;6.93;;
32196;SDS011;18697;42.770;23.400;2023-05-21T06:07:07;10.60;;;8.52;;
32196;SDS011;18697;42.770;23.400;2023-05-21T06:09:33;15.38;;;7.25;;
32196;SDS011;18697;42.770;23.400;2023-05-21T06:11:58;12.20;;;6.20;;
32196;SDS011;18697;42.770;23.400;2023-05-21T06:14:24;9.63;;;6.60;;
32196;SDS011;18697;42.770;23.400;2023-05-21T06:16:49;9.52;;;6.30;;
32196;SDS011;18697;42.770;23.400;2023-05-21T06:19:15;14.00;;;5.70;;
32196;SDS011;18697;42.770;23.400;2023-05-21T06:21:40;6.88;;;5.70;;
32196;SDS011;18697;42.770;23.400;2023-05-21T06:24:05;7.70;;;4.85;;
32196;SDS011;18697;42.770;23.400;2023-05-21T06:26:31;11.73;;;5.80;;
32196;SDS011;18697;42.770;23.400;2023-05-21T06:28:56;11.68;;;7.68;;
32196;SDS011;18697;42.770;23.400;2023-05-21T06:31:22;10.77;;;5.60;;
32196;SDS011;18697;42.770;23.400;2023-05-21T06:33:47;8.07;;;4.43;;
32196;SDS011;18697;42.770;23.400;2023-05-21T06:36:13;8.30;;;4.75;;
32196;SDS011;18697;42.770;23.400;2023-05-21T06:38:39;8.38;;;4.35;;
32196;SDS011;18697;42.770;23.400;2023-05-21T06:41:04;11.68;;;4.78;;
32196;SDS011;18697;42.770;23.400;2023-05-21T06:43:30;12.68;;;4.55;;
32196;SDS011;18697;42.770;23.400;2023-05-21T06:45:56;7.30;;;4.72;;
32196;SDS011;18697;42.770;23.400;2023-05-21T06:48:21;6.13;;;4.65;;
32196;SDS011;18697;42.770;23.400;2023-05-21T06:50:47;9.55;;;4.40;;
32196;SDS011;18697;42.770;23.400;2023-05-21T06:53:12;12.32;;;4.22;;
32196;SDS011;18697;42.770;23.400;2023-05-21T06:55:40;11.35;;;4.90;;
32196;SDS011;18697;42.770;23.400;2023-05-21T06:58:09;11.55;;;5.35;;
32196;SDS011;18697;42.770;23.400;2023-05-21T07:00:35;6.70;;;4.60;;
32196;SDS011;18697;42.770;23.400;2023-05-21T07:03:00;9.30;;;4.68;;
32196;SDS011;18697;42.770;23.400;2023-05-21T07:05:25;4.85;;;3.75;;
32196;SDS011;18697;42.770;23.400;2023-05-21T07:07:51;5.90;;;4.05;;
32196;SDS011;18697;42.770;23.400;2023-05-21T07:10:16;10.50;;;4.68;;
32196;SDS011;18697;42.770;23.400;2023-05-21T07:12:42;7.32;;;4.28;;
32196;SDS011;18697;42.770;23.400;2023-05-21T07:15:07;9.70;;;5.05;;
32196;SDS011;18697;42.770;23.400;2023-05-21T07:17:33;11.60;;;4.55;;
32196;SDS011;18697;42.770;23.400;2023-05-21T07:19:58;10.32;;;5.38;;
32196;SDS011;18697;42.770;23.400;2023-05-21T07:22:24;9.05;;;3.70;;
32196;SDS011;18697;42.770;23.400;2023-05-21T07:24:49;10.32;;;4.65;;
32196;SDS011;18697;42.770;23.400;2023-05-21T07:27:14;8.15;;;3.83;;
32196;SDS011;18697;42.770;23.400;2023-05-21T07:29:40;5.18;;;3.88;;
32196;SDS011;18697;42.770;23.400;2023-05-21T07:32:05;7.75;;;3.65;;
32196;SDS011;18697;42.770;23.400;2023-05-21T07:34:30;8.48;;;3.97;;
32196;SDS011;18697;42.770;23.400;2023-05-21T07:36:56;11.98;;;4.32;;
32196;SDS011;18697;42.770;23.400;2023-05-21T07:39:22;6.53;;;4.82;;
32196;SDS011;18697;42.770;23.400;2023-05-21T07:41:47;8.65;;;5.82;;
32196;SDS011;18697;42.770;23.400;2023-05-21T07:44:13;13.85;;;5.90;;
32196;SDS011;18697;42.770;23.400;2023-05-21T07:46:38;14.15;;;6.80;;
32196;SDS011;18697;42.770;23.400;2023-05-21T07:49:03;10.55;;;4.80;;
32196;SDS011;18697;42.770;23.400;2023-05-21T07:51:29;13.27;;;5.75;;
32196;SDS011;18697;42.770;23.400;2023-05-21T07:53:55;13.60;;;5.50;;
32196;SDS011;18697;42.770;23.400;2023-05-21T07:56:21;11.88;;;6.05;;
32196;SDS011;18697;42.770;23.400;2023-05-21T07:58:46;7.95;;;5.63;;
32196;SDS011;18697;42.770;23.400;2023-05-21T08:01:12;6.53;;;4.55;;
32196;SDS011;18697;42.770;23.400;2023-05-21T08:03:37;11.55;;;5.75;;
32196;SDS011;18697;42.770;23.400;2023-05-21T08:06:04;12.90;;;4.25;;
32196;SDS011;18697;42.770;23.400;2023-05-21T08:08:29;7.75;;;4.35;;
32196;SDS011;18697;42.770;23.400;2023-05-21T08:10:55;11.10;;;4.43;;
32196;SDS011;18697;42.770;23.400;2023-05-21T08:13:21;7.85;;;4.07;;
32196;SDS011;18697;42.770;23.400;2023-05-21T08:15:46;7.35;;;3.92;;
32196;SDS011;18697;42.770;23.400;2023-05-21T08:18:12;10.55;;;4.40;;
32196;SDS011;18697;42.770;23.400;2023-05-21T08:20:39;9.13;;;4.22;;
32196;SDS011;18697;42.770;23.400;2023-05-21T08:23:05;7.90;;;4.40;;
32196;SDS011;18697;42.770;23.400;2023-05-21T08:25:30;8.02;;;4.15;;
32196;SDS011;18697;42.770;23.400;2023-05-21T08:27:56;7.63;;;4.03;;
32196;SDS011;18697;42.770;23.400;2023-05-21T08:30:21;6.88;;;4.43;;
32196;SDS011;18697;42.770;23.400;2023-05-21T08:32:47;13.80;;;4.43;;
32196;SDS011;18697;42.770;23.400;2023-05-21T08:35:13;6.07;;;3.90;;
32196;SDS011;18697;42.770;23.400;2023-05-21T08:37:38;9.18;;;4.47;;
32196;SDS011;18697;42.770;23.400;2023-05-21T08:40:04;9.43;;;4.32;;
32196;SDS011;18697;42.770;23.400;2023-05-21T08:45:10;14.82;;;4.93;;
32196;SDS011;18697;42.770;23.400;2023-05-21T08:47:37;7.65;;;3.78;;
32196;SDS011;18697;42.770;23.400;2023-05-21T08:50:07;4.80;;;3.50;;
32196;SDS011;18697;42.770;23.400;2023-05-21T08:52:34;4.55;;;3.40;;
32196;SDS011;18697;42.770;23.400;2023-05-21T08:55:01;8.98;;;4.50;;
32196;SDS011;18697;42.770;23.400;2023-05-21T08:57:29;12.07;;;4.47;;
32196;SDS011;18697;42.770;23.400;2023-05-21T08:59:55;5.78;;;3.13;;
32196;SDS011;18697;42.770;23.400;2023-05-21T09:02:25;6.00;;;3.50;;
32196;SDS011;18697;42.770;23.400;2023-05-21T09:04:54;5.25;;;3.38;;
32196;SDS011;18697;42.770;23.400;2023-05-21T09:07:23;7.25;;;3.75;;
32196;SDS011;18697;42.770;23.400;2023-05-21T09:09:55;8.07;;;3.40;;
32196;SDS011;18697;42.770;23.400;2023-05-21T09:12:29;4.88;;;3.53;;
32196;SDS011;18697;42.770;23.400;2023-05-21T09:14:54;5.13;;;3.53;;
32196;SDS011;18697;42.770;23.400;2023-05-21T09:17:22;6.53;;;2.78;;
32196;SDS011;18697;42.770;23.400;2023-05-21T09:22:38;5.45;;;3.40;;
32196;SDS011;18697;42.770;23.400;2023-05-21T09:25:05;7.43;;;3.67;;
32196;SDS011;18697;42.770;23.400;2023-05-21T09:27:34;6.72;;;3.47;;
32196;SDS011;18697;42.770;23.400;2023-05-21T09:30:01;8.40;;;3.90;;
32196;SDS011;18697;42.770;23.400;2023-05-21T09:32:28;7.10;;;3.65;;
32196;SDS011;18697;42.770;23.400;2023-05-21T09:34:53;5.63;;;3.45;;
32196;SDS011;18697;42.770;23.400;2023-05-21T09:37:20;19.02;;;4.10;;
32196;SDS011;18697;42.770;23.400;2023-05-21T09:39:46;7.35;;;3.65;;
32196;SDS011;18697;42.770;23.400;2023-05-21T09:42:12;12.15;;;3.72;;
32196;SDS011;18697;42.770;23.400;2023-05-21T09:44:38;7.45;;;3.92;;
32196;SDS011;18697;42.770;23.400;2023-05-21T09:47:07;9.90;;;3.35;;
32196;SDS011;18697;42.770;23.400;2023-05-21T09:49:33;8.80;;;4.15;;
32196;SDS011;18697;42.770;23.400;2023-05-21T09:52:01;5.95;;;3.53;;
32196;SDS011;18697;42.770;23.400;2023-05-21T09:54:30;9.10;;;3.70;;
32196;SDS011;18697;42.770;23.400;2023-05-21T09:56:59;5.72;;;3.00;;
32196;SDS011;18697;42.770;23.400;2023-05-21T09:59:36;3.95;;;3.25;;
32196;SDS011;18697;42.770;23.400;2023-05-21T10:02:15;7.13;;;3.78;;
32196;SDS011;18697;42.770;23.400;2023-05-21T10:04:43;6.60;;;3.78;;
32196;SDS011;18697;42.770;23.400;2023-05-21T10:07:13;6.47;;;2.95;;
32196;SDS011;18697;42.770;23.400;2023-05-21T10:09:42;5.22;;;3.40;;
32196;SDS011;18697;42.770;23.400;2023-05-21T10:12:10;6.18;;;3.83;;
32196;SDS011;18697;42.770;23.400;2023-05-21T10:14:36;5.72;;;3.05;;
32196;SDS011;18697;42.770;23.400;2023-05-21T10:17:03;6.22;;;3.33;;
32196;SDS011;18697;42.770;23.400;2023-05-21T10:19:31;9.95;;;4.00;;
32196;SDS011;18697;42.770;23.400;2023-05-21T10:21:57;8.00;;;3.70;;
32196;SDS011;18697;42.770;23.400;2023-05-21T10:24:25;8.88;;;3.72;;
32196;SDS011;18697;42.770;23.400;2023-05-21T10:26:51;5.78;;;3.13;;
32196;SDS011;18697;42.770;23.400;2023-05-21T10:29:17;6.03;;;3.33;;
32196;SDS011;18697;42.770;23.400;2023-05-21T10:31:43;5.93;;;3.20;;
32196;SDS011;18697;42.770;23.400;2023-05-21T10:34:13;7.53;;;3.60;;
32196;SDS011;18697;42.770;23.400;2023-05-21T10:36:39;4.65;;;3.22;;
32196;SDS011;18697;42.770;23.400;2023-05-21T10:39:05;3.65;;;2.97;;
32196;SDS011;18697;42.770;23.400;2023-05-21T10:41:35;4.03;;;3.15;;
32196;SDS011;18697;42.770;23.400;2023-05-21T10:49:41;6.60;;;3.42;;
32196;SDS011;18697;42.770;23.400;2023-05-21T11:00:43;7.55;;;3.67;;
32196;SDS011;18697;42.770;23.400;2023-05-21T11:03:10;12.25;;;3.35;;
32196;SDS011;18697;42.770;23.400;2023-05-21T11:05:38;17.48;;;3.67;;
32196;SDS011;18697;42.770;23.400;2023-05-21T11:08:17;4.97;;;3.22;;
32196;SDS011;18697;42.770;23.400;2023-05-21T11:10:56;4.20;;;3.17;;
32196;SDS011;18697;42.770;23.400;2023-05-21T11:13:23;5.43;;;3.30;;
32196;SDS011;18697;42.770;23.400;2023-05-21T11:21:03;4.80;;;3.22;;
32196;SDS011;18697;42.770;23.400;2023-05-21T11:28:42;7.43;;;3.70;;
32196;SDS011;18697;42.770;23.400;2023-05-21T11:31:23;6.13;;;3.35;;
32196;SDS011;18697;42.770;23.400;2023-05-21T11:39:49;6.57;;;4.07;;
32196;SDS011;18697;42.770;23.400;2023-05-21T11:42:28;6.30;;;3.38;;
32196;SDS011;18697;42.770;23.400;2023-05-21T11:44:58;8.27;;;3.08;;
32196;SDS011;18697;42.770;23.400;2023-05-21T11:47:24;4.97;;;3.00;;
32196;SDS011;18697;42.770;23.400;2023-05-21T11:49:51;6.25;;;3.53;;
32196;SDS011;18697;42.770;23.400;2023-05-21T11:52:17;4.68;;;3.60;;
32196;SDS011;18697;42.770;23.400;2023-05-21T11:54:46;13.20;;;3.78;;
32196;SDS011;18697;42.770;23.400;2023-05-21T11:57:19;4.90;;;3.45;;
32196;SDS011;18697;42.770;23.400;2023-05-21T11:59:45;7.50;;;3.67;;
32196;SDS011;18697;42.770;23.400;2023-05-21T12:02:15;6.32;;;3.80;;
32196;SDS011;18697;42.770;23.400;2023-05-21T12:04:41;5.40;;;3.53;;
32196;SDS011;18697;42.770;23.400;2023-05-21T12:07:08;5.63;;;3.45;;
32196;SDS011;18697;42.770;23.400;2023-05-21T12:09:41;6.53;;;3.80;;
32196;SDS011;18697;42.770;23.400;2023-05-21T12:12:08;11.40;;;3.60;;
32196;SDS011;18697;42.770;23.400;2023-05-21T12:14:34;7.18;;;3.70;;
32196;SDS011;18697;42.770;23.400;2023-05-21T12:17:04;4.35;;;3.70;;
32196;SDS011;18697;42.770;23.400;2023-05-21T12:19:31;8.85;;;3.83;;
32196;SDS011;18697;42.770;23.400;2023-05-21T12:21:59;6.30;;;4.25;;
32196;SDS011;18697;42.770;23.400;2023-05-21T12:24:26;7.40;;;4.90;;
32196;SDS011;18697;42.770;23.400;2023-05-21T12:26:51;6.43;;;4.60;;
32196;SDS011;18697;42.770;23.400;2023-05-21T12:29:19;6.63;;;3.75;;
32196;SDS011;18697;42.770;23.400;2023-05-21T12:31:48;5.28;;;3.85;;
32196;SDS011;18697;42.770;23.400;2023-05-21T12:34:14;6.20;;;4.03;;
32196;SDS011;18697;42.770;23.400;2023-05-21T12:36:46;5.00;;;3.40;;
32196;SDS011;18697;42.770;23.400;2023-05-21T12:39:14;6.07;;;3.83;;
32196;SDS011;18697;42.770;23.400;2023-05-21T12:41:40;5.28;;;4.03;;
32196;SDS011;18697;42.770;23.400;2023-05-21T12:44:05;6.10;;;3.63;;
32196;SDS011;18697;42.770;23.400;2023-05-21T12:46:32;6.85;;;4.05;;
32196;SDS011;18697;42.770;23.400;2023-05-21T12:48:58;9.15;;;3.83;;
32196;SDS011;18697;42.770;23.400;2023-05-21T12:51:24;6.57;;;3.55;;
32196;SDS011;18697;42.770;23.400;2023-05-21T12:53:50;4.57;;;2.97;;
32196;SDS011;18697;42.770;23.400;2023-05-21T12:56:15;5.82;;;3.72;;
32196;SDS011;18697;42.770;23.400;2023-05-21T12:58:41;4.07;;;2.97;;
32196;SDS011;18697;42.770;23.400;2023-05-21T13:01:07;6.00;;;3.50;;
32196;SDS011;18697;42.770;23.400;2023-05-21T13:03:33;7.20;;;4.25;;
32196;SDS011;18697;42.770;23.400;2023-05-21T13:06:06;4.85;;;3.45;;
32196;SDS011;18697;42.770;23.400;2023-05-21T13:08:32;9.18;;;3.42;;
32196;SDS011;18697;42.770;23.400;2023-05-21T13:11:01;7.63;;;4.07;;
32196;SDS011;18697;42.770;23.400;2023-05-21T13:13:27;7.22;;;3.97;;
32196;SDS011;18697;42.770;23.400;2023-05-21T13:15:53;5.15;;;3.65;;
32196;SDS011;18697;42.770;23.400;2023-05-21T13:18:19;6.43;;;3.60;;
32196;SDS011;18697;42.770;23.400;2023-05-21T13:20:45;5.80;;;3.60;;
32196;SDS011;18697;42.770;23.400;2023-05-21T13:23:13;4.35;;;3.50;;
32196;SDS011;18697;42.770;23.400;2023-05-21T13:25:40;9.35;;;3.83;;
32196;SDS011;18697;42.770;23.400;2023-05-21T13:28:06;8.55;;;3.70;;
32196;SDS011;18697;42.770;23.400;2023-05-21T13:30:34;8.70;;;3.72;;
32196;SDS011;18697;42.770;23.400;2023-05-21T13:33:00;5.40;;;3.35;;
32196;SDS011;18697;42.770;23.400;2023-05-21T13:35:26;7.15;;;3.65;;
32196;SDS011;18697;42.770;23.400;2023-05-21T13:37:51;6.85;;;3.97;;
32196;SDS011;18697;42.770;23.400;2023-05-21T13:40:17;6.28;;;3.40;;
32196;SDS011;18697;42.770;23.400;2023-05-21T13:42:43;6.55;;;3.63;;
32196;SDS011;18697;42.770;23.400;2023-05-21T13:45:10;6.85;;;3.70;;
32196;SDS011;18697;42.770;23.400;2023-05-21T13:47:37;9.20;;;3.67;;
32196;SDS011;18697;42.770;23.400;2023-05-21T13:50:03;5.80;;;4.20;;
32196;SDS011;18697;42.770;23.400;2023-05-21T13:52:29;5.40;;;3.80;;
32196;SDS011;18697;42.770;23.400;2023-05-21T13:54:54;8.00;;;3.50;;
32196;SDS011;18697;42.770;23.400;2023-05-21T13:57:20;12.70;;;4.20;;
32196;SDS011;18697;42.770;23.400;2023-05-21T13:59:45;4.05;;;3.65;;
32196;SDS011;18697;42.770;23.400;2023-05-21T14:02:11;6.85;;;3.70;;
32196;SDS011;18697;42.770;23.400;2023-05-21T14:04:36;8.10;;;3.70;;
32196;SDS011;18697;42.770;23.400;2023-05-21T14:07:02;6.30;;;4.03;;
32196;SDS011;18697;42.770;23.400;2023-05-21T14:09:28;6.63;;;4.55;;
32196;SDS011;18697;42.770;23.400;2023-05-21T14:11:54;14.82;;;4.00;;
32196;SDS011;18697;42.770;23.400;2023-05-21T14:14:21;7.60;;;5.30;;
32196;SDS011;18697;42.770;23.400;2023-05-21T14:16:47;11.90;;;4.07;;
32196;SDS011;18697;42.770;23.400;2023-05-21T14:19:13;7.32;;;3.55;;
32196;SDS011;18697;42.770;23.400;2023-05-21T14:21:39;6.55;;;3.28;;
32196;SDS011;18697;42.770;23.400;2023-05-21T14:24:05;6.43;;;3.92;;
32196;SDS011;18697;42.770;23.400;2023-05-21T14:26:30;4.35;;;3.65;;
32196;SDS011;18697;42.770;23.400;2023-05-21T14:28:56;5.72;;;4.15;;
32196;SDS011;18697;42.770;23.400;2023-05-21T14:31:21;7.45;;;4.13;;
32196;SDS011;18697;42.770;23.400;2023-05-21T14:33:48;11.10;;;3.60;;
32196;SDS011;18697;42.770;23.400;2023-05-21T14:36:13;5.55;;;4.10;;
32196;SDS011;18697;42.770;23.400;2023-05-21T14:38:39;4.80;;;3.83;;
32196;SDS011;18697;42.770;23.400;2023-05-21T14:41:04;8.65;;;4.22;;
32196;SDS011;18697;42.770;23.400;2023-05-21T14:43:31;9.55;;;4.00;;
32196;SDS011;18697;42.770;23.400;2023-05-21T14:45:57;8.20;;;3.63;;
32196;SDS011;18697;42.770;23.400;2023-05-21T14:48:22;8.68;;;4.00;;
32196;SDS011;18697;42.770;23.400;2023-05-21T14:50:48;6.35;;;4.20;;
32196;SDS011;18697;42.770;23.400;2023-05-21T14:53:15;9.18;;;4.25;;
32196;SDS011;18697;42.770;23.400;2023-05-21T14:55:41;6.45;;;4.50;;
32196;SDS011;18697;42.770;23.400;2023-05-21T14:58:06;9.25;;;4.78;;
32196;SDS011;18697;42.770;23.400;2023-05-21T15:00:32;7.40;;;4.38;;
32196;SDS011;18697;42.770;23.400;2023-05-21T15:02:59;8.88;;;4.82;;
32196;SDS011;18697;42.770;23.400;2023-05-21T15:05:25;12.23;;;5.82;;
32196;SDS011;18697;42.770;23.400;2023-05-21T15:07:52;13.68;;;5.55;;
32196;SDS011;18697;42.770;23.400;2023-05-21T15:10:19;10.40;;;5.18;;
32196;SDS011;18697;42.770;23.400;2023-05-21T15:12:49;8.95;;;4.93;;